createdAt,value
2023-03-13T00:01:14.295Z,11.80
2023-03-13T00:03:44.030Z,11.80
2023-03-13T00:06:12.868Z,11.90
2023-03-13T00:08:41.226Z,11.90
2023-03-13T00:11:11.889Z,11.80
2023-03-13T00:13:40.243Z,11.90
2023-03-13T00:16:10.783Z,11.80
2023-03-13T00:18:40.076Z,11.70
2023-03-13T00:21:10.576Z,11.70
2023-03-13T00:23:39.648Z,11.60
2023-03-13T00:26:09.874Z,11.70
2023-03-13T00:28:39.594Z,11.70
2023-03-13T00:31:09.629Z,11.70
2023-03-13T00:33:39.252Z,11.60
2023-03-13T00:36:10.518Z,11.70
2023-03-13T00:38:38.950Z,11.60
2023-03-13T00:41:12.010Z,11.70
2023-03-13T00:43:41.683Z,11.70
2023-03-13T00:46:10.055Z,11.80
2023-03-13T00:48:39.697Z,11.80
2023-03-13T00:51:10.229Z,11.80
2023-03-13T00:53:38.909Z,11.80
2023-03-13T00:56:10.137Z,11.90
2023-03-13T00:58:40.587Z,11.90
2023-03-13T01:01:10.509Z,11.90
2023-03-13T01:03:39.581Z,11.90
2023-03-13T01:06:12.355Z,11.90
2023-03-13T01:08:40.957Z,12.00
2023-03-13T01:11:10.839Z,12.00
2023-03-13T01:13:39.766Z,12.10
2023-03-13T01:16:10.854Z,12.10
2023-03-13T01:18:41.167Z,12.10
2023-03-13T01:21:13.700Z,12.20
2023-03-13T01:23:42.120Z,12.30
2023-03-13T01:26:11.423Z,12.30
2023-03-13T01:28:40.344Z,12.30
2023-03-13T01:31:15.787Z,12.30
2023-03-13T01:33:44.044Z,12.20
2023-03-13T01:36:14.116Z,12.30
2023-03-13T01:38:42.795Z,12.20
2023-03-13T01:41:13.525Z,12.20
2023-03-13T01:43:44.886Z,12.10
2023-03-13T01:46:16.463Z,12.10
2023-03-13T01:49:17.744Z,12.00
2023-03-13T01:51:59.384Z,12.00
2023-03-13T01:54:33.698Z,12.00
2023-03-13T01:57:05.964Z,11.90
2023-03-13T01:59:39.447Z,11.80
2023-03-13T02:02:09.020Z,11.80
2023-03-13T02:04:40.490Z,11.80
2023-03-13T02:07:16.431Z,11.70
2023-03-13T02:09:49.426Z,11.70
2023-03-13T02:12:20.926Z,11.60
2023-03-13T02:14:51.676Z,11.50
2023-03-13T02:17:20.131Z,11.50
2023-03-13T02:19:51.903Z,11.50
2023-03-13T02:22:30.483Z,11.50
2023-03-13T02:25:10.238Z,11.50
2023-03-13T02:27:41.181Z,11.50
2023-03-13T02:30:11.193Z,11.50
2023-03-13T02:32:40.366Z,11.60
2023-03-13T02:35:10.971Z,11.50
2023-03-13T02:37:41.821Z,11.60
2023-03-13T02:40:19.156Z,11.70
2023-03-13T02:42:49.648Z,11.70
2023-03-13T02:45:19.173Z,11.70
2023-03-13T02:47:48.064Z,11.70
2023-03-13T02:50:17.013Z,11.70
2023-03-13T02:52:47.720Z,11.80
2023-03-13T02:55:22.562Z,11.80
2023-03-13T02:57:52.751Z,11.90
2023-03-13T03:00:26.741Z,11.90
2023-03-13T03:02:56.470Z,11.90
2023-03-13T03:05:25.028Z,11.90
2023-03-13T03:07:53.206Z,11.90
2023-03-13T03:10:21.531Z,11.90
2023-03-13T03:12:50.010Z,12.00
2023-03-13T03:15:19.958Z,12.00
2023-03-13T03:17:49.764Z,12.00
2023-03-13T03:20:18.076Z,12.00
2023-03-13T03:22:46.219Z,11.90
2023-03-13T03:25:14.479Z,11.90
2023-03-13T03:27:42.669Z,12.00
2023-03-13T03:30:12.284Z,12.00
2023-03-13T03:32:42.710Z,12.00
2023-03-13T03:35:11.073Z,12.10
2023-03-13T03:37:39.300Z,12.10
2023-03-13T03:40:09.331Z,12.20
2023-03-13T03:42:37.461Z,12.30
2023-03-13T03:45:06.257Z,12.20
2023-03-13T03:47:34.411Z,12.30
2023-03-13T03:50:04.775Z,12.30
2023-03-13T03:52:40.030Z,12.30
2023-03-13T03:55:09.000Z,12.30
2023-03-13T03:57:37.157Z,12.30
2023-03-13T04:00:14.256Z,12.30
2023-03-13T04:02:48.033Z,12.30
2023-03-13T04:05:17.950Z,12.30
2023-03-13T04:07:46.177Z,12.30
2023-03-13T04:10:14.835Z,12.30
2023-03-13T04:12:46.450Z,12.30
2023-03-13T04:15:14.757Z,12.30
2023-03-13T04:17:43.345Z,12.30
2023-03-13T04:20:14.315Z,12.40
2023-03-13T04:22:44.629Z,12.40
2023-03-13T04:25:13.542Z,12.40
2023-03-13T04:27:41.787Z,12.40
2023-03-13T04:30:11.726Z,12.40
2023-03-13T04:32:59.923Z,12.50
2023-03-13T04:35:48.530Z,12.40
2023-03-13T04:38:27.412Z,12.40
2023-03-13T04:41:18.619Z,12.40
2023-03-13T04:44:01.458Z,12.40
2023-03-13T04:46:52.589Z,12.50
2023-03-13T04:49:46.784Z,12.40
2023-03-13T04:52:33.561Z,12.40
2023-03-13T04:55:21.442Z,12.30
2023-03-13T04:58:06.881Z,12.30
2023-03-13T05:00:48.261Z,12.30
2023-03-13T05:03:18.992Z,12.20
2023-03-13T05:05:54.256Z,12.20
2023-03-13T05:08:42.756Z,12.20
2023-03-13T05:11:32.118Z,12.10
2023-03-13T05:14:00.544Z,12.10
2023-03-13T05:16:42.239Z,12.10
2023-03-13T05:19:30.616Z,12.10
2023-03-13T05:22:09.065Z,12.10
2023-03-13T05:25:07.076Z,12.00
2023-03-13T05:27:54.678Z,11.90
2023-03-13T05:30:45.805Z,11.90
2023-03-13T05:33:43.387Z,11.90
2023-03-13T05:36:30.280Z,11.80
2023-03-13T05:38:58.590Z,11.80
2023-03-13T05:41:50.737Z,11.80
2023-03-13T05:44:41.374Z,11.80
2023-03-13T05:47:32.631Z,11.90
2023-03-13T05:50:12.301Z,11.90
2023-03-13T05:53:00.673Z,11.80
2023-03-13T05:55:43.124Z,11.90
2023-03-13T05:58:30.493Z,11.90
2023-03-13T06:01:15.516Z,11.90
2023-03-13T06:03:53.693Z,11.90
2023-03-13T06:06:22.346Z,12.00
2023-03-13T06:08:53.773Z,12.00
2023-03-13T06:11:23.729Z,12.00
2023-03-13T06:13:53.110Z,12.00
2023-03-13T06:16:31.402Z,12.00
2023-03-13T06:19:12.904Z,12.00
2023-03-13T06:21:41.345Z,12.00
2023-03-13T06:24:09.534Z,12.10
2023-03-13T06:26:37.696Z,12.10
2023-03-13T06:29:05.812Z,12.10
2023-03-13T06:31:35.378Z,12.00
2023-03-13T06:34:03.792Z,12.10
2023-03-13T06:36:31.964Z,12.10
2023-03-13T06:39:00.270Z,12.10
2023-03-13T06:41:28.831Z,12.20
2023-03-13T06:43:56.987Z,12.20
2023-03-13T06:46:26.123Z,12.30
2023-03-13T06:48:55.868Z,12.40
2023-03-13T06:51:26.282Z,12.40
2023-03-13T06:53:54.414Z,12.50
2023-03-13T06:56:22.797Z,12.60
2023-03-13T06:58:51.596Z,12.60
2023-03-13T07:01:20.075Z,12.60
2023-03-13T07:03:48.852Z,12.70
2023-03-13T07:06:19.099Z,12.70
2023-03-13T07:08:47.548Z,12.70
2023-03-13T07:11:17.709Z,12.80
2023-03-13T07:13:45.909Z,12.90
2023-03-13T07:16:14.904Z,12.80
2023-03-13T07:18:44.966Z,12.90
2023-03-13T07:21:14.356Z,12.80
2023-03-13T07:23:43.858Z,12.90
2023-03-13T07:26:14.447Z,12.90
2023-03-13T07:28:42.920Z,13.00
2023-03-13T07:31:14.577Z,13.10
2023-03-13T07:33:44.895Z,13.10
2023-03-13T07:36:13.877Z,13.00
2023-03-13T07:38:44.306Z,13.10
2023-03-13T07:41:14.302Z,13.10
2023-03-13T07:43:42.847Z,13.10
2023-03-13T07:46:14.083Z,13.20
2023-03-13T07:48:44.122Z,13.30
2023-03-13T07:51:15.064Z,13.30
2023-03-13T07:53:44.797Z,13.30
2023-03-13T07:56:15.343Z,13.30
2023-03-13T07:58:44.573Z,13.40
2023-03-13T08:01:14.292Z,13.50
2023-03-13T08:03:42.423Z,13.50
2023-03-13T08:06:12.926Z,13.60
2023-03-13T08:08:41.684Z,13.50
2023-03-13T08:11:13.314Z,13.60
2023-03-13T08:13:42.345Z,13.80
2023-03-13T08:16:12.224Z,13.80
2023-03-13T08:18:41.956Z,13.80
2023-03-13T08:21:12.888Z,13.80
2023-03-13T08:23:41.543Z,13.90
2023-03-13T08:26:13.120Z,13.90
2023-03-13T08:28:42.227Z,14.00
2023-03-13T08:31:12.676Z,14.00
2023-03-13T08:33:41.633Z,14.10
2023-03-13T08:36:15.443Z,14.10
2023-03-13T08:38:45.931Z,14.00
2023-03-13T08:41:17.293Z,14.00
2023-03-13T08:43:46.182Z,14.10
2023-03-13T08:46:14.984Z,14.10
2023-03-13T08:48:43.397Z,14.10
2023-03-13T08:51:13.334Z,14.10
2023-03-13T08:53:43.000Z,14.20
2023-03-13T08:56:12.178Z,14.30
2023-03-13T08:58:42.065Z,14.40
2023-03-13T09:01:12.868Z,14.40
2023-03-13T09:03:41.406Z,14.40
2023-03-13T09:06:10.497Z,14.40
2023-03-13T09:08:39.474Z,14.40
2023-03-13T09:11:09.439Z,14.50
2023-03-13T09:13:41.929Z,14.60
2023-03-13T09:16:11.744Z,14.80
2023-03-13T09:18:40.228Z,14.90
2023-03-13T09:21:10.366Z,15.00
2023-03-13T09:23:38.404Z,15.20
2023-03-13T09:26:06.734Z,15.30
2023-03-13T09:28:36.028Z,15.60
2023-03-13T09:31:09.802Z,15.70
2023-03-13T09:33:38.112Z,15.80
2023-03-13T09:36:07.033Z,15.90
2023-03-13T09:38:35.577Z,16.00
2023-03-13T09:41:12.928Z,16.10
2023-03-13T09:43:47.140Z,16.10
2023-03-13T09:46:20.996Z,16.20
2023-03-13T09:48:52.303Z,16.20
2023-03-13T09:51:25.869Z,16.30
2023-03-13T09:53:59.025Z,16.30
2023-03-13T09:56:32.635Z,16.40
2023-03-13T09:59:09.274Z,16.40
2023-03-13T10:01:42.240Z,16.40
2023-03-13T10:04:25.237Z,16.50
2023-03-13T10:06:54.286Z,16.60
2023-03-13T10:09:28.772Z,16.70
2023-03-13T10:12:03.303Z,16.70
2023-03-13T10:14:35.702Z,16.80
2023-03-13T10:17:10.798Z,16.90
2023-03-13T10:19:43.571Z,17.10
2023-03-13T10:22:15.735Z,17.10
2023-03-13T10:24:50.518Z,17.00
2023-03-13T10:27:19.260Z,17.10
2023-03-13T10:29:48.697Z,17.00
2023-03-13T10:32:19.958Z,17.00
2023-03-13T10:34:53.556Z,17.10
2023-03-13T10:37:24.278Z,17.20
2023-03-13T10:39:52.703Z,17.20
2023-03-13T10:42:27.769Z,17.20
2023-03-13T10:45:04.965Z,17.30
2023-03-13T10:47:37.105Z,17.40
2023-03-13T10:50:06.422Z,17.50
2023-03-13T10:52:42.893Z,17.60
2023-03-13T10:55:13.637Z,17.70
2023-03-13T10:57:44.925Z,17.80
2023-03-13T11:00:35.457Z,18.00
2023-03-13T11:03:08.455Z,18.10
2023-03-13T11:05:42.660Z,18.30
2023-03-13T11:08:25.463Z,18.40
2023-03-13T11:10:59.532Z,18.70
2023-03-13T11:13:45.440Z,18.80
2023-03-13T11:16:22.120Z,18.90
2023-03-13T11:19:34.037Z,19.00
2023-03-13T11:22:26.523Z,19.00
2023-03-13T11:25:04.332Z,19.00
2023-03-13T11:27:37.698Z,19.10
2023-03-13T11:30:29.563Z,19.30
2023-03-13T11:33:01.702Z,19.50
2023-03-13T11:35:40.852Z,19.50
2023-03-13T11:38:14.250Z,19.50
2023-03-13T11:40:50.015Z,19.60
2023-03-13T11:43:34.045Z,19.70
2023-03-13T11:46:19.983Z,19.70
2023-03-13T11:49:21.406Z,19.70
2023-03-13T11:52:14.763Z,19.70
2023-03-13T11:55:02.286Z,19.70
2023-03-13T11:57:35.279Z,19.70
2023-03-13T12:00:21.703Z,19.70
2023-03-13T12:02:54.537Z,19.70
2023-03-13T12:05:23.950Z,19.80
2023-03-13T12:07:58.232Z,20.00
2023-03-13T12:10:31.086Z,20.20
2023-03-13T12:13:04.867Z,20.20
2023-03-13T12:15:39.026Z,20.20
2023-03-13T12:18:16.121Z,20.20
2023-03-13T12:20:50.153Z,20.30
2023-03-13T12:23:21.628Z,20.40
2023-03-13T12:25:55.490Z,20.50
2023-03-13T12:28:30.951Z,20.60
2023-03-13T12:31:05.547Z,20.70
2023-03-13T12:33:38.180Z,20.70
2023-03-13T12:36:12.566Z,20.70
2023-03-13T12:38:47.546Z,20.80
2023-03-13T12:41:26.707Z,20.80
2023-03-13T12:44:11.504Z,20.80
2023-03-13T12:46:45.270Z,20.70
2023-03-13T12:49:54.977Z,20.80
2023-03-13T12:52:55.564Z,20.70
2023-03-13T12:55:56.304Z,20.80
2023-03-13T12:58:41.927Z,20.70
2023-03-13T13:01:18.122Z,20.70
2023-03-13T13:03:54.110Z,20.60
2023-03-13T13:06:22.731Z,20.60
2023-03-13T13:09:09.208Z,20.60
2023-03-13T13:11:47.838Z,20.60
2023-03-13T13:14:52.347Z,20.50
2023-03-13T13:17:35.340Z,20.60
2023-03-13T13:20:32.030Z,20.60
2023-03-13T13:23:21.507Z,20.70
2023-03-13T13:25:50.465Z,20.70
2023-03-13T13:28:34.629Z,20.70
2023-03-13T13:31:03.153Z,20.60
2023-03-13T13:33:42.063Z,20.70
2023-03-13T13:36:32.215Z,20.70
2023-03-13T13:39:00.667Z,20.80
2023-03-13T13:41:38.046Z,20.80
2023-03-13T13:44:28.061Z,20.90
2023-03-13T13:46:58.885Z,21.00
2023-03-13T13:49:52.205Z,21.10
2023-03-13T13:52:37.503Z,21.20
2023-03-13T13:55:49.808Z,21.40
2023-03-13T13:58:24.806Z,21.50
2023-03-13T14:00:56.825Z,21.70
2023-03-13T14:03:26.426Z,21.70
2023-03-13T14:05:57.822Z,21.80
2023-03-13T14:08:30.585Z,21.90
2023-03-13T14:11:11.023Z,21.90
2023-03-13T14:13:40.937Z,21.90
2023-03-13T14:16:25.071Z,22.00
2023-03-13T14:18:54.246Z,22.10
2023-03-13T14:21:24.935Z,22.10
2023-03-13T14:23:53.301Z,22.00
2023-03-13T14:26:23.235Z,22.00
2023-03-13T14:28:54.153Z,22.10
2023-03-13T14:31:31.286Z,22.10
2023-03-13T14:34:04.067Z,22.20
2023-03-13T14:36:46.364Z,22.20
2023-03-13T14:39:19.961Z,22.10
2023-03-13T14:41:50.308Z,22.00
2023-03-13T14:44:25.497Z,22.00
2023-03-13T14:46:57.602Z,22.00
2023-03-13T14:49:29.588Z,22.00
2023-03-13T14:52:02.202Z,22.00
2023-03-13T14:54:32.929Z,22.00
2023-03-13T14:57:06.920Z,22.10
2023-03-13T14:59:36.467Z,22.10
2023-03-13T15:02:15.249Z,22.10
2023-03-13T15:04:50.896Z,22.20
2023-03-13T15:07:19.860Z,22.20
2023-03-13T15:09:49.630Z,22.20
2023-03-13T15:12:21.243Z,22.20
2023-03-13T15:14:52.320Z,22.10
2023-03-13T15:17:22.248Z,22.10
2023-03-13T15:19:52.184Z,22.10
2023-03-13T15:22:25.983Z,22.10
2023-03-13T15:25:05.716Z,22.10
2023-03-13T15:27:35.255Z,22.00
2023-03-13T15:30:05.982Z,22.00
2023-03-13T15:32:36.963Z,22.00
2023-03-13T15:35:22.906Z,22.10
2023-03-13T15:37:51.233Z,22.10
2023-03-13T15:40:20.133Z,22.20
2023-03-13T15:42:48.619Z,22.30
2023-03-13T15:45:18.570Z,22.30
2023-03-13T15:47:48.835Z,22.30
2023-03-13T15:50:19.938Z,22.40
2023-03-13T15:52:48.275Z,22.40
2023-03-13T15:55:16.642Z,22.40
2023-03-13T15:57:47.435Z,22.20
2023-03-13T16:00:21.414Z,22.20
2023-03-13T16:02:49.496Z,22.10
2023-03-13T16:05:18.754Z,22.10
2023-03-13T16:07:46.914Z,21.90
2023-03-13T16:10:18.665Z,21.90
2023-03-13T16:12:46.833Z,21.80
2023-03-13T16:15:15.417Z,21.80
2023-03-13T16:17:44.922Z,21.80
2023-03-13T16:20:17.031Z,21.70
2023-03-13T16:22:45.804Z,21.60
2023-03-13T16:25:15.149Z,21.50
2023-03-13T16:27:43.453Z,21.40
2023-03-13T16:30:17.922Z,21.40
2023-03-13T16:32:47.522Z,21.40
2023-03-13T16:35:15.706Z,21.40
2023-03-13T16:37:43.952Z,21.30
2023-03-13T16:40:23.415Z,21.30
2023-03-13T16:42:52.134Z,21.30
2023-03-13T16:45:20.750Z,21.40
2023-03-13T16:47:50.857Z,21.30
2023-03-13T16:50:25.171Z,21.40
2023-03-13T16:52:54.227Z,21.30
2023-03-13T16:55:24.712Z,21.40
2023-03-13T16:57:54.946Z,21.40
2023-03-13T17:00:25.362Z,21.30
2023-03-13T17:02:56.742Z,21.20
2023-03-13T17:05:25.724Z,21.20
2023-03-13T17:07:54.274Z,21.10
2023-03-13T17:10:25.906Z,21.10
2023-03-13T17:12:54.262Z,21.00
2023-03-13T17:15:23.319Z,21.00
2023-03-13T17:17:52.889Z,21.00
2023-03-13T17:20:24.457Z,20.90
2023-03-13T17:22:52.748Z,20.80
2023-03-13T17:25:20.900Z,20.90
2023-03-13T17:27:49.340Z,20.90
2023-03-13T17:30:21.976Z,20.90
2023-03-13T17:32:50.869Z,20.80
2023-03-13T17:35:21.074Z,20.80
2023-03-13T17:37:51.179Z,20.20
2023-03-13T17:40:22.868Z,19.70
2023-03-13T17:42:51.268Z,19.20
2023-03-13T17:45:20.140Z,18.80
2023-03-13T17:47:49.383Z,18.50
2023-03-13T17:50:21.017Z,17.60
2023-03-13T17:52:50.800Z,17.20
2023-03-13T17:55:19.863Z,17.20
2023-03-13T17:57:48.533Z,17.10
2023-03-13T18:00:29.210Z,16.90
2023-03-13T18:02:57.794Z,16.90
2023-03-13T18:05:26.064Z,17.40
2023-03-13T18:07:57.002Z,17.70
2023-03-13T18:10:26.700Z,18.00
2023-03-13T18:12:55.151Z,18.10
2023-03-13T18:15:25.021Z,18.30
2023-03-13T18:17:53.713Z,18.30
2023-03-13T18:20:24.232Z,18.40
2023-03-13T18:22:52.454Z,18.50
2023-03-13T18:25:21.952Z,17.20
2023-03-13T18:27:50.297Z,15.80
2023-03-13T18:30:20.801Z,15.90
2023-03-13T18:32:49.470Z,16.40
2023-03-13T18:35:18.425Z,16.90
2023-03-13T18:37:48.332Z,16.90
2023-03-13T18:40:19.174Z,17.30
2023-03-13T18:42:48.876Z,17.50
2023-03-13T18:45:18.904Z,17.00
2023-03-13T18:47:48.165Z,17.00
2023-03-13T18:50:23.411Z,17.20
2023-03-13T18:52:52.028Z,16.50
2023-03-13T18:55:20.278Z,16.40
2023-03-13T18:57:50.670Z,16.00
2023-03-13T19:00:20.920Z,15.20
2023-03-13T19:02:49.651Z,14.70
2023-03-13T19:05:18.265Z,14.60
2023-03-13T19:07:46.662Z,14.30
2023-03-13T19:10:21.953Z,14.10
2023-03-13T19:12:52.220Z,14.30
2023-03-13T19:15:21.941Z,14.20
2023-03-13T19:17:50.592Z,14.00
2023-03-13T19:20:20.981Z,14.00
2023-03-13T19:22:49.393Z,13.80
2023-03-13T19:25:17.918Z,13.60
2023-03-13T19:27:46.761Z,13.20
2023-03-13T19:30:22.547Z,12.60
2023-03-13T19:32:50.957Z,12.50
2023-03-13T19:35:22.351Z,12.60
2023-03-13T19:37:50.837Z,12.70
2023-03-13T19:40:21.378Z,12.50
2023-03-13T19:42:49.546Z,12.60
2023-03-13T19:45:20.512Z,13.00
2023-03-13T19:47:49.633Z,13.50
2023-03-13T19:50:20.130Z,13.80
2023-03-13T19:52:48.340Z,14.00
2023-03-13T19:55:16.925Z,14.30
2023-03-13T19:57:45.482Z,14.40
2023-03-13T20:00:22.438Z,14.50
2023-03-13T20:02:52.188Z,14.50
2023-03-13T20:05:20.448Z,14.50
2023-03-13T20:07:48.828Z,14.40
2023-03-13T20:10:17.122Z,14.30
2023-03-13T20:12:45.413Z,14.30
2023-03-13T20:15:14.161Z,14.10
2023-03-13T20:17:43.739Z,14.00
2023-03-13T20:20:13.784Z,13.90
2023-03-13T20:22:42.103Z,13.80
2023-03-13T20:25:10.828Z,13.80
2023-03-13T20:27:39.121Z,13.80
2023-03-13T20:30:08.993Z,13.80
2023-03-13T20:32:41.213Z,13.70
2023-03-13T20:35:15.748Z,13.60
2023-03-13T20:37:44.001Z,13.50
2023-03-13T20:40:13.349Z,13.50
2023-03-13T20:42:41.548Z,13.60
2023-03-13T20:45:10.822Z,13.50
2023-03-13T20:47:38.981Z,13.50
2023-03-13T20:50:08.217Z,13.50
2023-03-13T20:52:37.746Z,13.30
2023-03-13T20:55:06.617Z,13.30
2023-03-13T20:57:36.537Z,13.20
2023-03-13T21:00:06.872Z,13.30
2023-03-13T21:02:35.134Z,13.30
2023-03-13T21:05:03.351Z,13.20
2023-03-13T21:07:32.223Z,13.00
2023-03-13T21:10:01.837Z,12.90
2023-03-13T21:12:30.204Z,12.70
2023-03-13T21:14:58.873Z,12.60
2023-03-13T21:17:27.148Z,12.50
2023-03-13T21:19:55.324Z,12.40
2023-03-13T21:22:24.401Z,12.20
2023-03-13T21:24:52.629Z,12.10
2023-03-13T21:27:22.393Z,12.10
2023-03-13T21:29:50.965Z,12.10
2023-03-13T21:32:19.570Z,12.10
2023-03-13T21:34:47.813Z,12.00
2023-03-13T21:37:17.689Z,12.00
2023-03-13T21:39:46.009Z,12.00
2023-03-13T21:42:14.585Z,11.90
2023-03-13T21:44:44.625Z,11.90
2023-03-13T21:47:13.235Z,11.90
2023-03-13T21:49:41.371Z,12.00
2023-03-13T21:52:09.512Z,12.00
2023-03-13T21:54:37.625Z,12.00
2023-03-13T21:57:06.001Z,12.00
2023-03-13T21:59:34.123Z,12.00
2023-03-13T22:02:03.958Z,12.10
2023-03-13T22:04:32.092Z,12.10
2023-03-13T22:07:00.266Z,12.10
2023-03-13T22:09:28.469Z,12.10
2023-03-13T22:11:56.593Z,12.10
2023-03-13T22:14:26.272Z,12.10
2023-03-13T22:16:54.450Z,12.10
2023-03-13T22:19:23.967Z,12.10
2023-03-13T22:21:52.109Z,12.10
2023-03-13T22:24:20.292Z,12.20
2023-03-13T22:26:48.313Z,12.10
2023-03-13T22:29:16.475Z,12.10
2023-03-13T22:31:44.647Z,12.10
2023-03-13T22:34:12.753Z,12.10
2023-03-13T22:36:42.555Z,12.10
2023-03-13T22:39:10.701Z,12.10
2023-03-13T22:41:38.897Z,12.10
2023-03-13T22:44:07.592Z,12.10
2023-03-13T22:46:36.045Z,12.10
2023-03-13T22:49:04.756Z,12.20
2023-03-13T22:51:33.225Z,12.10
2023-03-13T22:54:02.893Z,12.20
2023-03-13T22:56:30.960Z,12.30
2023-03-13T22:58:59.092Z,12.20
2023-03-13T23:01:27.479Z,12.20
2023-03-13T23:03:55.691Z,12.20
2023-03-13T23:06:26.235Z,12.10
2023-03-13T23:08:54.692Z,12.20
2023-03-13T23:11:24.576Z,12.10
2023-03-13T23:13:52.826Z,12.20
2023-03-13T23:16:20.983Z,12.20
2023-03-13T23:18:49.545Z,12.20
2023-03-13T23:21:17.866Z,12.20
2023-03-13T23:23:47.121Z,12.20
2023-03-13T23:26:17.077Z,12.20
2023-03-13T23:28:46.642Z,12.10
2023-03-13T23:31:17.174Z,12.10
2023-03-13T23:33:45.886Z,12.10
2023-03-13T23:36:16.851Z,12.10
2023-03-13T23:38:45.518Z,12.10
2023-03-13T23:41:15.375Z,12.00
2023-03-13T23:43:43.701Z,12.10
2023-03-13T23:46:18.602Z,12.10
2023-03-13T23:48:46.805Z,12.20
2023-03-13T23:51:15.214Z,12.30
2023-03-13T23:53:44.488Z,12.20
2023-03-13T23:56:13.539Z,12.30
2023-03-13T23:58:42.038Z,12.30
